createdAt,value
2022-11-07T00:00:14.615Z,98502.38
2022-11-07T00:01:20.840Z,98500.41
2022-11-07T00:02:23.715Z,98499.34
2022-11-07T00:03:27.906Z,98494.78
2022-11-07T00:04:31.130Z,98504.81
2022-11-07T00:05:34.879Z,98502.84
2022-11-07T00:06:38.036Z,98500.13
2022-11-07T00:07:41.796Z,98501.78
2022-11-07T00:08:45.926Z,98499.06
2022-11-07T00:09:49.688Z,98497.44
2022-11-07T00:10:54.945Z,98497.09
2022-11-07T00:11:58.763Z,98496.88
2022-11-07T00:13:01.446Z,98495.72
2022-11-07T00:14:05.188Z,98497.16
2022-11-07T00:15:08.687Z,98503.66
2022-11-07T00:16:12.806Z,98513.59
2022-11-07T00:17:15.577Z,98501.13
2022-11-07T00:18:19.326Z,98496.41
2022-11-07T00:19:22.687Z,98497.84
2022-11-07T00:20:26.517Z,98497.41
2022-11-07T00:21:29.290Z,98495.44
2022-11-07T00:22:33.069Z,98495.91
2022-11-07T00:23:36.209Z,98494.75
2022-11-07T00:24:42.124Z,98498.88
2022-11-07T00:25:44.829Z,98502.09
2022-11-07T00:26:49.115Z,98498.44
2022-11-07T00:27:52.047Z,98501.63
2022-11-07T00:28:56.582Z,98500.59
2022-11-07T00:29:59.255Z,98503.88
2022-11-07T00:31:03.118Z,98503.75
2022-11-07T00:32:07.245Z,98495.75
2022-11-07T00:33:09.944Z,98501.56
2022-11-07T00:34:13.777Z,98496.25
2022-11-07T00:35:17.645Z,98498.72
2022-11-07T00:36:22.265Z,98509.00
2022-11-07T00:37:26.047Z,98500.16
2022-11-07T00:38:28.905Z,98502.75
2022-11-07T00:39:32.665Z,98495.69
2022-11-07T00:40:36.736Z,98500.75
2022-11-07T00:41:40.518Z,98503.34
2022-11-07T00:42:44.267Z,98498.97
2022-11-07T00:43:47.007Z,98505.00
2022-11-07T00:44:50.707Z,98494.59
2022-11-07T00:45:53.468Z,98492.84
2022-11-07T00:46:57.279Z,98490.25
2022-11-07T00:48:24.679Z,98501.44
2022-11-07T00:49:28.426Z,98495.44
2022-11-07T00:50:31.586Z,98507.47
2022-11-07T00:51:35.276Z,98494.38
2022-11-07T00:52:38.075Z,98497.00
2022-11-07T00:53:42.009Z,98494.25
2022-11-07T00:54:44.639Z,98499.47
2022-11-07T00:55:49.768Z,98496.75
2022-11-07T00:56:52.487Z,98486.34
2022-11-07T00:57:57.317Z,98481.03
2022-11-07T00:59:00.779Z,98487.06
2022-11-07T01:00:05.598Z,98485.31
2022-11-07T01:01:09.407Z,98492.28
2022-11-07T01:02:13.210Z,98481.88
2022-11-07T01:03:34.354Z,98483.53
2022-11-07T01:04:56.139Z,98492.16
2022-11-07T01:06:00.020Z,98492.16
2022-11-07T01:07:03.939Z,98479.16
2022-11-07T01:08:07.177Z,98480.69
2022-11-07T01:09:12.587Z,98478.91
2022-11-07T01:10:15.308Z,98465.81
2022-11-07T01:11:20.529Z,98473.34
2022-11-07T01:12:24.258Z,98470.66
2022-11-07T01:13:27.129Z,98467.00
2022-11-07T01:14:31.027Z,98460.00
2022-11-07T01:15:33.835Z,98467.81
2022-11-07T01:16:39.058Z,98473.75
2022-11-07T01:17:41.826Z,98465.81
2022-11-07T01:18:45.540Z,98459.78
2022-11-07T01:19:48.189Z,98471.84
2022-11-07T01:20:51.997Z,98457.88
2022-11-07T01:21:54.719Z,98460.50
2022-11-07T01:22:58.535Z,98450.91
2022-11-07T01:24:03.670Z,98456.03
2022-11-07T01:25:08.109Z,98456.84
2022-11-07T01:26:12.988Z,98450.69
2022-11-07T01:27:18.057Z,98456.03
2022-11-07T01:28:20.742Z,98458.63
2022-11-07T01:29:24.456Z,98447.41
2022-11-07T01:30:27.238Z,98449.03
2022-11-07T01:31:32.531Z,98449.03
2022-11-07T01:32:35.277Z,98452.59
2022-11-07T01:33:39.489Z,98450.00
2022-11-07T01:34:42.235Z,98450.00
2022-11-07T01:35:45.928Z,98446.53
2022-11-07T01:36:48.649Z,98439.59
2022-11-07T01:37:52.438Z,98441.34
2022-11-07T01:38:55.335Z,98444.91
2022-11-07T01:39:59.105Z,98436.16
2022-11-07T01:41:20.190Z,98444.81
2022-11-07T01:42:25.469Z,98438.88
2022-11-07T01:43:42.368Z,98436.16
2022-11-07T01:44:56.219Z,98437.81
2022-11-07T01:45:58.876Z,98443.84
2022-11-07T01:47:03.036Z,98438.53
2022-11-07T01:48:05.906Z,98439.22
2022-11-07T01:49:12.727Z,98438.28
2022-11-07T01:50:15.419Z,98444.19
2022-11-07T01:51:19.759Z,98444.88
2022-11-07T01:52:24.628Z,98443.84
2022-11-07T01:53:28.548Z,98453.97
2022-11-07T01:54:33.765Z,98438.28
2022-11-07T01:55:37.707Z,98438.97
2022-11-07T01:56:42.518Z,98436.16
2022-11-07T01:57:50.545Z,98435.88
2022-11-07T01:58:53.903Z,98433.06
2022-11-07T02:00:00.305Z,98442.38
2022-11-07T02:01:03.068Z,98435.31
2022-11-07T02:02:07.076Z,98437.78
2022-11-07T02:03:12.335Z,98433.31
2022-11-07T02:04:17.861Z,98434.94
2022-11-07T02:05:24.856Z,98433.03
2022-11-07T02:06:36.639Z,98431.16
2022-11-07T02:07:39.821Z,98430.22
2022-11-07T02:08:45.727Z,98432.69
2022-11-07T02:09:48.887Z,98423.91
2022-11-07T02:10:53.115Z,98420.28
2022-11-07T02:12:01.175Z,98421.09
2022-11-07T02:13:06.547Z,98419.19
2022-11-07T02:14:14.707Z,98428.63
2022-11-07T02:15:17.587Z,98421.66
2022-11-07T02:16:21.377Z,98427.72
2022-11-07T02:17:24.137Z,98425.81
2022-11-07T02:18:29.260Z,98431.00
2022-11-07T02:19:35.264Z,98424.03
2022-11-07T02:20:38.995Z,98426.63
2022-11-07T02:21:47.316Z,98427.44
2022-11-07T02:22:55.347Z,98428.28
2022-11-07T02:24:01.219Z,98430.88
2022-11-07T02:25:09.140Z,98417.31
2022-11-07T02:26:12.170Z,98419.78
2022-11-07T02:27:17.656Z,98421.66
2022-11-07T02:28:22.078Z,98413.84
2022-11-07T02:29:27.204Z,98414.81
2022-11-07T02:30:33.940Z,98413.03
2022-11-07T02:31:37.718Z,98407.00
2022-11-07T02:32:40.605Z,98408.78
2022-11-07T02:33:44.397Z,98414.81
2022-11-07T02:34:56.098Z,98412.19
2022-11-07T02:35:59.917Z,98407.94
2022-11-07T02:37:04.049Z,98407.00
2022-11-07T02:38:10.988Z,98407.13
2022-11-07T02:39:13.716Z,98402.75
2022-11-07T02:40:19.266Z,98407.94
2022-11-07T02:41:24.004Z,98397.53
2022-11-07T02:42:43.620Z,98407.94
2022-11-07T02:43:49.975Z,98400.97
2022-11-07T02:44:54.289Z,98394.94
2022-11-07T02:45:59.521Z,98397.41
2022-11-07T02:47:02.346Z,98398.13
2022-11-07T02:48:06.930Z,98387.72
2022-11-07T02:49:09.697Z,98392.66
2022-11-07T02:50:15.079Z,98391.75
2022-11-07T02:51:18.326Z,98394.94
2022-11-07T02:52:22.217Z,98398.25
2022-11-07T02:53:25.042Z,98393.75
2022-11-07T02:54:28.826Z,98392.78
2022-11-07T02:55:32.976Z,98393.50
2022-11-07T02:56:36.711Z,98395.97
2022-11-07T02:57:39.458Z,98388.88
2022-11-07T02:58:43.421Z,98394.91
2022-11-07T02:59:46.076Z,98386.16
2022-11-07T03:00:49.797Z,98389.44
2022-11-07T03:01:52.630Z,98391.22
2022-11-07T03:02:56.589Z,98384.13
2022-11-07T03:03:59.469Z,98383.19
2022-11-07T03:05:03.259Z,98385.78
2022-11-07T03:06:07.066Z,98389.22
2022-11-07T03:07:10.777Z,98387.44
2022-11-07T03:08:13.537Z,98389.09
2022-11-07T03:09:17.264Z,98395.94
2022-11-07T03:10:20.069Z,98392.38
2022-11-07T03:11:25.197Z,98405.38
2022-11-07T03:12:27.891Z,98395.94
2022-11-07T03:13:31.671Z,98399.34
2022-11-07T03:14:34.501Z,98401.81
2022-11-07T03:15:38.286Z,98401.72
2022-11-07T03:16:42.016Z,98401.72
2022-11-07T03:17:44.755Z,98398.16
2022-11-07T03:18:48.507Z,98405.03
2022-11-07T03:19:51.227Z,98395.44
2022-11-07T03:20:54.989Z,98397.22
2022-11-07T03:21:57.707Z,98401.47
2022-11-07T03:23:01.424Z,98401.47
2022-11-07T03:24:04.617Z,98399.94
2022-11-07T03:25:09.578Z,98404.31
2022-11-07T03:26:12.272Z,98402.91
2022-11-07T03:27:17.548Z,98405.53
2022-11-07T03:28:20.298Z,98405.66
2022-11-07T03:29:23.988Z,98404.84
2022-11-07T03:30:26.687Z,98399.63
2022-11-07T03:31:30.439Z,98405.75
2022-11-07T03:32:35.054Z,98402.31
2022-11-07T03:33:38.803Z,98406.84
2022-11-07T03:34:41.574Z,98405.19
2022-11-07T03:35:45.308Z,98402.47
2022-11-07T03:36:47.988Z,98407.66
2022-11-07T03:37:51.991Z,98404.94
2022-11-07T03:38:54.711Z,98404.69
2022-11-07T03:39:58.418Z,98403.75
2022-11-07T03:41:01.198Z,98402.69
2022-11-07T03:42:05.098Z,98403.38
2022-11-07T03:43:09.220Z,98404.19
2022-11-07T03:44:13.009Z,98404.06
2022-11-07T03:45:16.422Z,98407.63
2022-11-07T03:46:20.238Z,98399.81
2022-11-07T03:47:22.948Z,98402.41
2022-11-07T03:48:26.681Z,98389.41
2022-11-07T03:49:29.347Z,98389.53
2022-11-07T03:50:33.121Z,98399.13
2022-11-07T03:51:35.978Z,98390.50
2022-11-07T03:52:39.664Z,98391.31
2022-11-07T03:53:43.357Z,98390.50
2022-11-07T03:54:46.110Z,98387.06
2022-11-07T03:55:49.929Z,98393.19
2022-11-07T03:56:52.622Z,98393.19
2022-11-07T03:57:56.366Z,98387.16
2022-11-07T03:59:00.548Z,98388.00
2022-11-07T04:00:05.118Z,98383.75
2022-11-07T04:01:14.455Z,98388.13
2022-11-07T04:02:18.433Z,98389.91
2022-11-07T04:03:21.139Z,98396.88
2022-11-07T04:04:24.909Z,98395.25
2022-11-07T04:05:27.597Z,98395.34
2022-11-07T04:06:31.430Z,98391.09
2022-11-07T04:07:34.070Z,98396.31
2022-11-07T04:08:37.888Z,98398.09
2022-11-07T04:09:40.642Z,98393.84
2022-11-07T04:10:44.376Z,98393.69
2022-11-07T04:12:07.517Z,98392.88
2022-11-07T04:13:28.908Z,98394.78
2022-11-07T04:14:51.186Z,98399.41
2022-11-07T04:16:32.285Z,98392.78
2022-11-07T04:17:56.031Z,98390.47
2022-11-07T04:19:19.710Z,98395.75
2022-11-07T04:20:43.447Z,98380.25
2022-11-07T04:22:07.170Z,98387.13
2022-11-07T04:23:30.848Z,98389.72
2022-11-07T04:24:53.648Z,98375.78
2022-11-07T04:26:35.188Z,98382.53
2022-11-07T04:27:58.819Z,98386.75
2022-11-07T04:29:22.563Z,98377.19
2022-11-07T04:30:47.600Z,98382.28
2022-11-07T04:32:11.333Z,98379.53
2022-11-07T04:33:35.090Z,98381.06
2022-11-07T04:34:57.778Z,98376.56
2022-11-07T04:36:27.547Z,98375.47
2022-11-07T04:37:51.560Z,98373.72
2022-11-07T04:39:15.297Z,98371.00
2022-11-07T04:40:39.027Z,98371.81
2022-11-07T04:42:01.717Z,98378.66
2022-11-07T04:43:26.320Z,98368.13
2022-11-07T04:44:49.998Z,98380.31
2022-11-07T04:46:15.399Z,98377.84
2022-11-07T04:47:40.569Z,98380.59
2022-11-07T04:49:04.739Z,98379.72
2022-11-07T04:50:28.422Z,98383.06
2022-11-07T04:51:55.798Z,98383.59
2022-11-07T04:53:20.198Z,98386.22
2022-11-07T04:54:42.907Z,98386.34
2022-11-07T04:56:06.916Z,98382.91
2022-11-07T04:57:29.550Z,98376.75
2022-11-07T04:58:53.291Z,98382.69
2022-11-07T05:00:09.530Z,98383.38
2022-11-07T05:01:34.628Z,98386.66
2022-11-07T05:02:58.456Z,98387.75
2022-11-07T05:04:21.138Z,98379.25
2022-11-07T05:05:44.840Z,98388.00
2022-11-07T05:07:08.974Z,98396.88
2022-11-07T05:08:32.737Z,98391.81
2022-11-07T05:09:55.348Z,98388.50
2022-11-07T05:10:59.120Z,98392.75
2022-11-07T05:12:21.728Z,98390.41
2022-11-07T05:13:45.461Z,98394.78
2022-11-07T05:14:59.558Z,98386.25
2022-11-07T05:16:22.240Z,98395.03
2022-11-07T05:17:47.522Z,98402.16
2022-11-07T05:19:14.488Z,98398.81
2022-11-07T05:20:39.739Z,98403.19
2022-11-07T05:22:20.449Z,98404.03
2022-11-07T05:23:44.148Z,98408.41
2022-11-07T05:25:07.991Z,98400.72
2022-11-07T05:26:31.699Z,98405.94
2022-11-07T05:27:55.825Z,98399.91
2022-11-07T05:29:19.587Z,98404.97
2022-11-07T05:30:44.077Z,98408.41
2022-11-07T05:32:07.985Z,98409.13
2022-11-07T05:33:26.848Z,98415.97
2022-11-07T05:34:50.707Z,98409.81
2022-11-07T05:36:15.810Z,98417.50
2022-11-07T05:37:39.569Z,98413.84
2022-11-07T05:39:03.287Z,98417.13
2022-11-07T05:40:25.976Z,98419.63
2022-11-07T05:41:49.640Z,98419.50
2022-11-07T05:43:14.701Z,98417.56
2022-11-07T05:44:38.706Z,98423.59
2022-11-07T05:46:02.879Z,98423.50
2022-11-07T05:47:26.572Z,98418.28
2022-11-07T05:48:55.348Z,98425.00
2022-11-07T05:50:20.649Z,98427.47
2022-11-07T05:51:44.389Z,98424.78
2022-11-07T05:53:08.932Z,98427.25
2022-11-07T05:54:33.259Z,98444.50
2022-11-07T05:55:57.179Z,98450.69
2022-11-07T05:57:20.946Z,98442.03
2022-11-07T05:58:44.623Z,98443.81
2022-11-07T06:00:09.965Z,98438.63
2022-11-07T06:01:35.711Z,98440.41
2022-11-07T06:03:01.196Z,98450.81
2022-11-07T06:04:26.539Z,98448.91
2022-11-07T06:05:49.247Z,98447.94
2022-11-07T06:07:12.902Z,98460.72
2022-11-07T06:08:36.709Z,98458.13
2022-11-07T06:10:00.405Z,98452.78
2022-11-07T06:11:24.150Z,98456.22
2022-11-07T06:12:50.329Z,98462.22
2022-11-07T06:14:17.590Z,98462.38
2022-11-07T06:15:42.158Z,98461.53
2022-11-07T06:17:05.888Z,98465.09
2022-11-07T06:18:29.659Z,98466.16
2022-11-07T06:19:54.728Z,98463.00
2022-11-07T06:21:18.485Z,98475.06
2022-11-07T06:22:41.139Z,98469.03
2022-11-07T06:24:04.884Z,98467.25
2022-11-07T06:25:27.810Z,98476.00
2022-11-07T06:26:51.493Z,98470.81
2022-11-07T06:28:12.289Z,98476.94
2022-11-07T06:29:36.080Z,98476.13
2022-11-07T06:31:01.459Z,98468.31
2022-11-07T06:32:25.177Z,98470.91
2022-11-07T06:33:51.494Z,98463.94
2022-11-07T06:35:16.738Z,98463.94
2022-11-07T06:36:40.423Z,98463.09
2022-11-07T06:38:04.941Z,98463.81
2022-11-07T06:39:28.748Z,98469.72
2022-11-07T06:40:52.451Z,98467.81
2022-11-07T06:42:16.137Z,98473.75
2022-11-07T06:43:40.249Z,98474.44
2022-11-07T06:45:04.029Z,98484.75
2022-11-07T06:46:27.834Z,98479.53
2022-11-07T06:47:50.479Z,98482.81
2022-11-07T06:49:14.267Z,98489.00
2022-11-07T06:50:40.074Z,98494.28
2022-11-07T06:52:03.807Z,98491.97
2022-11-07T06:53:27.913Z,98486.03
2022-11-07T06:54:51.542Z,98484.16
2022-11-07T06:56:17.160Z,98490.19
2022-11-07T06:57:40.889Z,98481.28
2022-11-07T06:59:04.640Z,98483.78
2022-11-07T07:00:28.643Z,98477.50
2022-11-07T07:01:52.438Z,98485.19
2022-11-07T07:03:16.394Z,98487.53
2022-11-07T07:04:40.362Z,98486.56
2022-11-07T07:06:06.990Z,98480.31
2022-11-07T07:07:31.219Z,98478.41
2022-11-07T07:08:54.950Z,98482.41
2022-11-07T07:10:19.276Z,98473.53
2022-11-07T07:11:45.335Z,98481.34
2022-11-07T07:13:09.117Z,98476.84
2022-11-07T07:14:32.799Z,98479.31
2022-11-07T07:15:57.207Z,98477.28
2022-11-07T07:17:20.869Z,98482.94
2022-11-07T07:18:44.518Z,98476.53
2022-11-07T07:20:09.328Z,98477.91
2022-11-07T07:21:35.289Z,98480.97
2022-11-07T07:23:04.412Z,98481.41
2022-11-07T07:24:29.348Z,98486.00
2022-11-07T07:25:53.058Z,98488.22
2022-11-07T07:27:16.715Z,98484.41
2022-11-07T07:28:40.428Z,98475.38
2022-11-07T07:30:04.151Z,98475.56
2022-11-07T07:31:31.791Z,98482.88
2022-11-07T07:32:54.370Z,98484.94
2022-11-07T07:34:18.050Z,98487.16
2022-11-07T07:35:40.676Z,98490.34
2022-11-07T07:37:05.869Z,98485.56
2022-11-07T07:38:29.689Z,98489.56
2022-11-07T07:39:53.651Z,98491.09
2022-11-07T07:41:17.624Z,98490.00
2022-11-07T07:42:44.455Z,98495.09
2022-11-07T07:44:08.393Z,98500.06
2022-11-07T07:45:32.106Z,98507.59
2022-11-07T07:46:55.821Z,98499.63
2022-11-07T07:48:18.399Z,98499.38
2022-11-07T07:49:42.081Z,98508.03
2022-11-07T07:51:05.950Z,98502.69
2022-11-07T07:52:31.131Z,98503.41
2022-11-07T07:53:55.034Z,98504.22
2022-11-07T07:55:19.639Z,98510.13
2022-11-07T07:56:43.292Z,98507.25
2022-11-07T07:58:06.988Z,98503.53
2022-11-07T07:59:30.693Z,98502.47
2022-11-07T08:00:55.226Z,98497.94
2022-11-07T08:02:19.079Z,98496.84
2022-11-07T08:04:00.698Z,98497.31
2022-11-07T08:05:26.060Z,98485.09
2022-11-07T08:06:49.870Z,98497.75
2022-11-07T08:08:15.488Z,98496.63
2022-11-07T08:09:39.388Z,98495.41
2022-11-07T08:10:43.255Z,98498.47
2022-11-07T08:12:08.975Z,98496.41
2022-11-07T08:13:27.398Z,98497.78
2022-11-07T08:14:30.208Z,98496.56
2022-11-07T08:15:34.054Z,98500.56
2022-11-07T08:16:37.875Z,98501.94
2022-11-07T08:17:40.848Z,98500.81
2022-11-07T08:18:44.548Z,98497.28
2022-11-07T08:19:47.250Z,98499.75
2022-11-07T08:20:51.606Z,98503.19
2022-11-07T08:21:55.532Z,98501.25
2022-11-07T08:23:02.041Z,98508.97
2022-11-07T08:24:08.080Z,98500.03
2022-11-07T08:25:11.719Z,98497.25
2022-11-07T08:26:15.598Z,98506.78
2022-11-07T08:27:19.353Z,98502.22
2022-11-07T08:28:24.671Z,98498.66
2022-11-07T08:29:28.438Z,98502.91
2022-11-07T08:30:31.946Z,98501.25
2022-11-07T08:31:35.649Z,98505.50
2022-11-07T08:32:39.438Z,98508.00
2022-11-07T08:33:43.360Z,98499.22
2022-11-07T08:34:46.161Z,98505.94
2022-11-07T08:35:49.918Z,98500.72
2022-11-07T08:36:53.708Z,98511.88
2022-11-07T08:37:56.713Z,98505.41
2022-11-07T08:39:00.458Z,98511.31
2022-11-07T08:40:05.133Z,98505.81
2022-11-07T08:41:08.960Z,98511.72
2022-11-07T08:42:12.728Z,98507.19
2022-11-07T08:43:18.673Z,98518.34
2022-11-07T08:44:22.707Z,98511.19
2022-11-07T08:45:25.340Z,98512.81
2022-11-07T08:46:29.093Z,98525.63
2022-11-07T08:47:31.737Z,98524.66
2022-11-07T08:48:35.538Z,98530.59
2022-11-07T08:49:39.212Z,98524.25
2022-11-07T08:50:42.168Z,98528.25
2022-11-07T08:51:45.859Z,98534.97
2022-11-07T08:52:49.661Z,98534.69
2022-11-07T08:53:53.385Z,98537.72
2022-11-07T08:54:56.008Z,98534.81
2022-11-07T08:56:04.548Z,98539.78
2022-11-07T08:57:07.250Z,98545.69
2022-11-07T08:58:11.529Z,98537.72
2022-11-07T08:59:15.442Z,98541.00
2022-11-07T09:00:19.648Z,98542.53
2022-11-07T09:01:23.531Z,98549.41
2022-11-07T09:03:56.500Z,98545.56
2022-11-07T09:05:00.750Z,98546.38
2022-11-07T09:06:05.111Z,98539.22
2022-11-07T09:07:07.777Z,98537.56
2022-11-07T09:08:11.452Z,98538.38
2022-11-07T09:09:16.612Z,98550.50
2022-11-07T09:10:20.577Z,98545.16
2022-11-07T09:11:25.969Z,98547.75
2022-11-07T09:12:29.729Z,98545.97
2022-11-07T09:13:34.531Z,98547.63
2022-11-07T09:14:37.211Z,98546.78
2022-11-07T09:15:43.845Z,98554.50
2022-11-07T09:16:50.501Z,98557.09
2022-11-07T09:17:54.278Z,98553.50
2022-11-07T09:18:56.978Z,98555.03
2022-11-07T09:20:00.675Z,98552.94
2022-11-07T09:21:04.480Z,98561.50
2022-11-07T09:22:08.202Z,98555.31
2022-11-07T09:23:11.951Z,98560.69
2022-11-07T09:24:15.739Z,98550.22
2022-11-07T09:25:19.493Z,98557.34
2022-11-07T09:26:23.279Z,98554.06
2022-11-07T09:27:27.498Z,98559.56
2022-11-07T09:28:32.399Z,98557.53
2022-11-07T09:29:36.986Z,98556.97
2022-11-07T09:30:41.931Z,98563.47
2022-11-07T09:31:45.710Z,98548.19
2022-11-07T09:32:48.525Z,98558.91
2022-11-07T09:33:52.200Z,98562.63
2022-11-07T09:34:58.308Z,98554.38
2022-11-07T09:36:03.477Z,98543.22
2022-11-07T09:37:07.395Z,98543.78
2022-11-07T09:38:11.239Z,98550.94
2022-11-07T09:39:14.945Z,98556.44
2022-11-07T09:40:24.829Z,98549.69
2022-11-07T09:41:35.137Z,98549.00
2022-11-07T09:42:46.567Z,98562.88
2022-11-07T09:43:59.775Z,98556.72
2022-11-07T09:45:02.619Z,98542.81
2022-11-07T09:46:14.949Z,98565.38
2022-11-07T09:47:22.459Z,98560.16
2022-11-07T09:48:27.970Z,98563.44
2022-11-07T09:49:35.627Z,98570.06
2022-11-07T09:50:39.986Z,98562.47
2022-11-07T09:51:47.400Z,98565.50
2022-11-07T09:52:55.282Z,98565.78
2022-11-07T09:54:02.488Z,98558.50
2022-11-07T09:55:13.510Z,98562.63
2022-11-07T09:56:17.449Z,98563.97
2022-11-07T09:57:21.630Z,98556.84
2022-11-07T09:58:29.207Z,98554.91
2022-11-07T09:59:39.369Z,98552.13
2022-11-07T10:00:43.403Z,98560.28
2022-11-07T10:01:47.326Z,98567.31
2022-11-07T10:02:54.179Z,98557.66
2022-11-07T10:04:23.743Z,98564.53
2022-11-07T10:05:31.807Z,98559.88
2022-11-07T10:06:37.927Z,98562.88
2022-11-07T10:07:47.481Z,98554.91
2022-11-07T10:08:53.850Z,98557.91
2022-11-07T10:10:02.431Z,98558.47
2022-11-07T10:11:09.628Z,98559.00
2022-11-07T10:12:23.897Z,98558.72
2022-11-07T10:13:53.830Z,98550.59
2022-11-07T10:15:03.628Z,98561.63
2022-11-07T10:16:11.431Z,98568.91
2022-11-07T10:17:21.680Z,98559.53
2022-11-07T10:18:34.015Z,98572.19
2022-11-07T10:19:52.258Z,98564.19
2022-11-07T10:21:31.191Z,98567.38
2022-11-07T10:22:34.408Z,98556.75
2022-11-07T10:23:49.248Z,98559.22
2022-11-07T10:25:06.525Z,98563.34
2022-11-07T10:26:12.435Z,98568.72
2022-11-07T10:27:22.756Z,98575.34
2022-11-07T10:28:26.689Z,98560.75
2022-11-07T10:29:44.683Z,98556.50
2022-11-07T10:30:51.134Z,98562.69
2022-11-07T10:31:57.592Z,98561.59
2022-11-07T10:33:07.120Z,98563.94
2022-11-07T10:34:16.581Z,98553.97
2022-11-07T10:35:24.861Z,98557.97
2022-11-07T10:36:30.001Z,98547.06
2022-11-07T10:37:33.808Z,98552.84
2022-11-07T10:38:41.329Z,98552.53
2022-11-07T10:39:45.017Z,98556.53
2022-11-07T10:40:48.018Z,98556.91
2022-11-07T10:42:01.658Z,98558.28
2022-11-07T10:43:08.989Z,98546.69
2022-11-07T10:44:15.699Z,98546.56
2022-11-07T10:45:19.747Z,98550.00
2022-11-07T10:46:26.641Z,98554.09
2022-11-07T10:47:30.288Z,98558.53
2022-11-07T10:48:34.020Z,98549.69
2022-11-07T10:49:37.819Z,98560.03
2022-11-07T10:50:41.553Z,98561.53
2022-11-07T10:51:44.293Z,98565.50
2022-11-07T10:52:54.768Z,98558.03
2022-11-07T10:53:59.841Z,98562.53
2022-11-07T10:55:09.548Z,98550.22
2022-11-07T10:56:14.760Z,98558.31
2022-11-07T10:57:20.881Z,98556.59
2022-11-07T10:58:25.226Z,98552.25
2022-11-07T10:59:35.913Z,98562.00
2022-11-07T11:00:44.789Z,98557.94
2022-11-07T11:01:51.951Z,98558.63
2022-11-07T11:02:56.901Z,98557.00
2022-11-07T11:03:59.645Z,98551.22
2022-11-07T11:05:05.169Z,98555.94
2022-11-07T11:06:13.279Z,98553.09
2022-11-07T11:07:16.977Z,98547.75
2022-11-07T11:08:22.897Z,98551.78
2022-11-07T11:09:31.258Z,98542.34
2022-11-07T11:10:40.024Z,98544.75
2022-11-07T11:11:47.091Z,98538.00
2022-11-07T11:12:50.372Z,98547.78
2022-11-07T11:14:03.219Z,98549.75
2022-11-07T11:15:10.960Z,98549.75
2022-11-07T11:16:25.507Z,98553.19
2022-11-07T11:17:29.252Z,98555.00
2022-11-07T11:18:33.069Z,98554.69
2022-11-07T11:19:42.341Z,98557.84
2022-11-07T11:20:47.197Z,98549.97
2022-11-07T11:21:52.515Z,98550.13
2022-11-07T11:22:55.399Z,98552.06
2022-11-07T11:23:59.120Z,98561.22
2022-11-07T11:25:05.729Z,98551.00
2022-11-07T11:26:14.462Z,98550.84
2022-11-07T11:27:20.861Z,98541.88
2022-11-07T11:28:28.432Z,98561.59
2022-11-07T11:29:39.700Z,98557.03
2022-11-07T11:30:44.161Z,98554.94
2022-11-07T11:31:50.450Z,98554.47
2022-11-07T11:32:58.989Z,98557.47
2022-11-07T11:34:06.332Z,98560.78
2022-11-07T11:35:21.361Z,98559.81
2022-11-07T11:36:25.850Z,98557.19
2022-11-07T11:37:29.732Z,98554.94
2022-11-07T11:38:37.684Z,98552.88
2022-11-07T11:39:44.416Z,98555.16
2022-11-07T11:40:51.002Z,98557.66
2022-11-07T11:41:56.282Z,98558.34
2022-11-07T11:43:04.321Z,98565.09
2022-11-07T11:44:15.520Z,98549.59
2022-11-07T11:45:22.979Z,98562.09
2022-11-07T11:46:30.388Z,98559.41
2022-11-07T11:47:38.488Z,98556.72
2022-11-07T11:48:45.858Z,98558.72
2022-11-07T11:49:51.240Z,98561.56
2022-11-07T11:50:58.759Z,98558.34
2022-11-07T11:52:07.113Z,98555.63
2022-11-07T11:53:16.366Z,98552.91
2022-11-07T11:54:20.338Z,98546.75
2022-11-07T11:55:25.560Z,98551.19
2022-11-07T11:56:39.529Z,98557.16
2022-11-07T11:57:50.180Z,98553.16
2022-11-07T11:59:06.061Z,98559.25
2022-11-07T12:00:11.720Z,98557.28
2022-11-07T12:01:23.183Z,98562.22
2022-11-07T12:02:39.173Z,98560.75
2022-11-07T12:03:53.102Z,98559.41
2022-11-07T12:04:58.891Z,98561.97
2022-11-07T12:06:16.663Z,98562.06
2022-11-07T12:07:37.172Z,98556.91
2022-11-07T12:09:05.221Z,98549.63
2022-11-07T12:10:14.948Z,98552.25
2022-11-07T12:11:22.563Z,98556.03
2022-11-07T12:12:29.769Z,98554.53
2022-11-07T12:13:37.590Z,98552.72
2022-11-07T12:15:09.281Z,98545.84
2022-11-07T12:16:22.282Z,98540.75
2022-11-07T12:17:33.497Z,98563.38
2022-11-07T12:18:43.508Z,98556.31
2022-11-07T12:19:52.562Z,98557.00
2022-11-07T12:21:13.400Z,98554.75
2022-11-07T12:22:24.969Z,98564.47
2022-11-07T12:23:41.746Z,98555.31
2022-11-07T12:24:49.147Z,98555.84
2022-11-07T12:25:57.131Z,98552.09
2022-11-07T12:27:06.906Z,98550.97
2022-11-07T12:28:29.961Z,98547.66
2022-11-07T12:29:49.370Z,98547.28
2022-11-07T12:30:57.921Z,98544.84
2022-11-07T12:32:11.851Z,98544.16
2022-11-07T12:33:25.158Z,98557.13
2022-11-07T12:34:40.523Z,98552.38
2022-11-07T12:35:47.712Z,98550.44
2022-11-07T12:36:59.290Z,98551.09
2022-11-07T12:38:29.317Z,98551.47
2022-11-07T12:39:51.780Z,98549.56
2022-11-07T12:41:01.948Z,98544.84
2022-11-07T12:42:09.365Z,98540.59
2022-11-07T12:43:23.477Z,98542.09
2022-11-07T12:44:43.572Z,98539.16
2022-11-07T12:45:55.520Z,98547.25
2022-11-07T12:47:00.450Z,98538.56
2022-11-07T12:48:22.391Z,98547.81
2022-11-07T12:49:38.476Z,98546.06
2022-11-07T12:50:46.813Z,98536.78
2022-11-07T12:51:57.277Z,98538.59
2022-11-07T12:53:09.721Z,98546.00
2022-11-07T12:54:31.802Z,98538.47
2022-11-07T12:55:41.669Z,98538.50
2022-11-07T12:56:47.328Z,98542.47
2022-11-07T12:57:54.133Z,98537.22
2022-11-07T12:58:56.820Z,98543.31
2022-11-07T13:00:06.792Z,98551.06
2022-11-07T13:01:13.487Z,98554.16
2022-11-07T13:02:27.572Z,98551.88
2022-11-07T13:03:53.076Z,98547.44
2022-11-07T13:05:02.158Z,98545.63
2022-11-07T13:06:15.419Z,98555.81
2022-11-07T13:07:23.792Z,98547.94
2022-11-07T13:08:35.043Z,98553.00
2022-11-07T13:09:42.691Z,98551.38
2022-11-07T13:10:52.160Z,98560.09
2022-11-07T13:12:00.598Z,98559.59
2022-11-07T13:13:06.729Z,98558.13
2022-11-07T13:14:32.335Z,98560.78
2022-11-07T13:16:00.802Z,98564.56
2022-11-07T13:17:15.299Z,98550.09
2022-11-07T13:18:22.634Z,98566.84
2022-11-07T13:19:32.881Z,98569.81
2022-11-07T13:20:38.514Z,98568.50
2022-11-07T13:21:43.639Z,98561.59
2022-11-07T13:22:47.727Z,98568.66
2022-11-07T13:23:51.541Z,98566.72
2022-11-07T13:24:58.420Z,98562.09
2022-11-07T13:26:32.455Z,98562.59
2022-11-07T13:27:34.878Z,98568.50
2022-11-07T13:28:40.054Z,98569.50
2022-11-07T13:29:45.358Z,98576.56
2022-11-07T13:30:55.701Z,98581.16
2022-11-07T13:32:11.072Z,98581.50
2022-11-07T13:33:26.839Z,98578.03
2022-11-07T13:34:30.550Z,98584.78
2022-11-07T13:35:35.472Z,98579.38
2022-11-07T13:36:41.179Z,98584.94
2022-11-07T13:37:48.257Z,98580.50
2022-11-07T13:38:54.518Z,98582.97
2022-11-07T13:40:03.699Z,98584.28
2022-11-07T13:41:09.420Z,98579.50
2022-11-07T13:42:15.598Z,98582.50
2022-11-07T13:43:20.679Z,98583.63
2022-11-07T13:44:28.090Z,98579.13
2022-11-07T13:45:34.208Z,98581.41
2022-11-07T13:46:43.609Z,98585.69
2022-11-07T13:47:46.519Z,98586.50
2022-11-07T13:48:52.578Z,98590.00
2022-11-07T13:50:00.328Z,98585.06
2022-11-07T13:51:07.876Z,98584.88
2022-11-07T13:52:18.478Z,98583.53
2022-11-07T13:53:27.688Z,98586.19